createdAt,value
2022-09-10T00:03:19.728Z,15.87
2022-09-10T00:08:24.967Z,15.82
2022-09-10T00:13:28.946Z,15.73
2022-09-10T00:18:33.443Z,16.15
2022-09-10T00:23:39.122Z,15.98
2022-09-10T00:28:43.461Z,15.64
2022-09-10T00:33:47.634Z,15.52
2022-09-10T00:38:55.008Z,15.57
2022-09-10T00:44:00.285Z,15.47
2022-09-10T00:49:12.267Z,15.69
2022-09-10T00:54:20.741Z,16.12
2022-09-10T00:59:27.716Z,15.84
2022-09-10T01:04:33.632Z,15.77
2022-09-10T01:09:40.621Z,16.04
2022-09-10T01:15:05.744Z,16.43
2022-09-10T01:20:35.559Z,15.84
2022-09-10T01:25:52.688Z,15.99
2022-09-10T01:31:05.232Z,15.93
2022-09-10T01:36:15.174Z,15.46
2022-09-10T01:41:25.333Z,15.83
2022-09-10T01:46:41.785Z,15.52
2022-09-10T01:52:03.207Z,14.74
2022-09-10T01:57:20.163Z,14.92
2022-09-10T02:02:31.876Z,15.23
2022-09-10T02:07:39.611Z,14.99
2022-09-10T02:12:44.707Z,14.77
2022-09-10T02:18:08.535Z,15.12
2022-09-10T02:23:18.494Z,15.43
2022-09-10T02:28:22.330Z,15.35
2022-09-10T02:33:28.197Z,15.44
2022-09-10T02:38:33.876Z,15.18
2022-09-10T02:43:38.401Z,15.14
2022-09-10T02:48:45.914Z,14.32
2022-09-10T02:53:50.631Z,14.32
2022-09-10T02:58:54.725Z,14.64
2022-09-10T03:04:03.519Z,14.24
2022-09-10T03:09:08.664Z,14.28
2022-09-10T03:14:20.225Z,14.86
2022-09-10T03:19:25.519Z,15.18
2022-09-10T03:24:29.555Z,14.88
2022-09-10T03:29:33.671Z,14.47
2022-09-10T03:34:40.063Z,14.48
2022-09-10T03:39:44.111Z,14.04
2022-09-10T03:44:48.018Z,14.36
2022-09-10T03:49:53.767Z,14.77
2022-09-10T03:54:58.830Z,14.79
2022-09-10T04:00:04.924Z,15.04
2022-09-10T04:05:20.553Z,14.91
2022-09-10T04:10:26.166Z,15.03
2022-09-10T04:15:30.223Z,15.21
2022-09-10T04:20:36.727Z,15.02
2022-09-10T04:25:45.361Z,15.06
2022-09-10T04:30:51.295Z,14.13
2022-09-10T04:36:00.594Z,14.01
2022-09-10T04:41:05.124Z,14.26
2022-09-10T04:46:10.227Z,14.76
2022-09-10T04:51:18.481Z,14.81
2022-09-10T04:56:29.758Z,15.32
2022-09-10T05:01:34.943Z,15.33
2022-09-10T05:06:40.361Z,15.77
2022-09-10T05:11:47.428Z,14.57
2022-09-10T05:16:51.435Z,14.19
2022-09-10T05:21:57.263Z,14.07
2022-09-10T05:27:01.829Z,14.20
2022-09-10T05:32:06.176Z,14.09
2022-09-10T05:37:12.187Z,14.33
2022-09-10T05:42:17.290Z,14.05
2022-09-10T05:47:21.852Z,14.58
2022-09-10T05:52:27.663Z,14.74
2022-09-10T05:57:36.761Z,14.19
2022-09-10T06:02:41.781Z,14.00
2022-09-10T06:08:00.178Z,14.76
2022-09-10T06:13:04.031Z,14.97
2022-09-10T06:18:07.997Z,14.97
2022-09-10T06:23:13.577Z,15.17
2022-09-10T06:28:17.719Z,15.23
2022-09-10T06:33:24.006Z,15.52
2022-09-10T06:38:33.678Z,15.53
2022-09-10T06:43:38.448Z,15.60
2022-09-10T06:49:00.913Z,15.31
2022-09-10T06:54:11.553Z,15.66
2022-09-10T06:59:17.150Z,15.80
2022-09-10T07:04:23.784Z,15.89
2022-09-10T07:09:28.937Z,16.28
2022-09-10T07:14:35.035Z,16.35
2022-09-10T07:19:42.697Z,15.85
2022-09-10T07:24:56.153Z,16.14
2022-09-10T07:30:24.370Z,15.73
2022-09-10T07:35:31.340Z,15.77
2022-09-10T07:40:37.641Z,15.29
2022-09-10T07:45:43.052Z,15.50
2022-09-10T07:50:47.727Z,15.10
2022-09-10T07:56:02.230Z,15.03
2022-09-10T08:01:12.719Z,15.34
2022-09-10T08:06:18.482Z,15.35
2022-09-10T08:11:26.410Z,15.53
2022-09-10T08:16:33.199Z,15.33
2022-09-10T08:21:44.639Z,15.78
2022-09-10T08:26:52.841Z,15.99
2022-09-10T08:31:56.863Z,15.83
2022-09-10T08:37:05.264Z,15.49
2022-09-10T08:42:19.863Z,15.29
2022-09-10T08:47:33.445Z,15.45
2022-09-10T08:52:48.952Z,15.47
2022-09-10T08:58:11.600Z,15.51
2022-09-10T09:03:32.270Z,15.44
2022-09-10T09:08:48.636Z,15.00
2022-09-10T09:14:21.823Z,15.24
2022-09-10T09:19:36.415Z,15.19
2022-09-10T09:24:49.598Z,15.61
2022-09-10T09:30:02.171Z,15.73
2022-09-10T09:35:23.942Z,15.73
2022-09-10T09:40:37.373Z,15.54
2022-09-10T09:45:47.896Z,15.70
2022-09-10T09:51:00.759Z,15.76
2022-09-10T09:56:09.715Z,15.01
2022-09-10T10:01:21.421Z,14.42
2022-09-10T10:06:35.957Z,14.56
2022-09-10T10:11:45.678Z,15.25
2022-09-10T10:17:00.440Z,15.07
2022-09-10T10:22:22.328Z,14.81
2022-09-10T10:27:33.046Z,14.49
2022-09-10T10:32:48.828Z,14.86
2022-09-10T10:38:14.458Z,14.47
2022-09-10T10:43:31.441Z,14.08
2022-09-10T10:48:49.456Z,13.95
2022-09-10T10:54:08.122Z,14.03
2022-09-10T10:59:31.371Z,13.64
2022-09-10T11:04:45.277Z,13.49
2022-09-10T11:09:56.180Z,13.60
2022-09-10T11:15:04.418Z,13.71
2022-09-10T11:20:28.552Z,13.60
2022-09-10T11:25:40.263Z,13.73
2022-09-10T11:30:50.680Z,14.00
2022-09-10T11:36:01.677Z,14.49
2022-09-10T11:41:15.587Z,14.10
2022-09-10T11:46:25.531Z,15.34
2022-09-10T11:51:33.779Z,15.74
2022-09-10T11:56:51.235Z,14.97
2022-09-10T12:02:16.508Z,14.78
2022-09-10T12:07:36.460Z,14.45
2022-09-10T12:12:43.512Z,14.56
2022-09-10T12:17:51.943Z,15.69
2022-09-10T12:22:58.086Z,15.66
2022-09-10T12:28:03.459Z,15.62
2022-09-10T12:33:54.312Z,15.23
2022-09-10T12:39:23.093Z,16.02
2022-09-10T12:44:44.811Z,15.85
2022-09-10T12:55:06.218Z,16.50
2022-09-10T13:00:22.114Z,17.16
2022-09-10T13:05:28.985Z,16.46
2022-09-10T13:10:34.885Z,16.62
2022-09-10T13:15:40.132Z,15.98
2022-09-10T13:20:44.089Z,16.09
2022-09-10T13:25:51.432Z,16.51
2022-09-10T13:31:02.839Z,15.00
2022-09-10T13:36:19.778Z,15.37
2022-09-10T13:42:00.333Z,15.24
2022-09-10T13:47:10.937Z,15.11
2022-09-10T13:52:18.747Z,15.73
2022-09-10T13:57:29.603Z,15.93
2022-09-10T14:02:41.891Z,15.25
2022-09-10T14:07:46.060Z,15.39
2022-09-10T14:12:52.790Z,16.64
2022-09-10T14:18:00.079Z,16.62
2022-09-10T14:23:05.969Z,16.11
2022-09-10T14:28:25.008Z,16.17
2022-09-10T14:33:33.044Z,16.17
2022-09-10T14:38:40.145Z,16.45
2022-09-10T14:43:45.753Z,16.73
2022-09-10T14:49:09.149Z,15.52
2022-09-10T14:54:14.985Z,16.70
2022-09-10T14:59:29.377Z,16.06
2022-09-10T15:04:33.677Z,16.13
2022-09-10T15:09:37.714Z,15.59
2022-09-10T15:14:43.014Z,16.50
2022-09-10T15:19:48.383Z,16.77
2022-09-10T15:25:09.179Z,17.31
2022-09-10T15:30:17.418Z,16.27
2022-09-10T15:35:21.811Z,15.16
2022-09-10T15:40:26.122Z,14.93
2022-09-10T15:45:34.848Z,14.39
2022-09-10T15:50:39.222Z,15.33
2022-09-10T15:55:43.163Z,14.52
2022-09-10T16:00:48.525Z,15.24
2022-09-10T16:05:53.146Z,15.30
2022-09-10T16:10:57.336Z,15.60
2022-09-10T16:16:05.172Z,14.70
2022-09-10T16:21:11.612Z,15.29
2022-09-10T16:26:18.311Z,14.84
2022-09-10T16:31:25.268Z,14.79
2022-09-10T16:36:31.335Z,15.19
2022-09-10T16:41:35.243Z,16.10
2022-09-10T16:46:40.776Z,15.02
2022-09-10T16:51:46.209Z,14.69
2022-09-10T16:56:50.552Z,14.55
2022-09-10T17:01:59.586Z,15.30
2022-09-10T17:07:04.002Z,15.72
2022-09-10T17:12:10.581Z,14.87
2022-09-10T17:17:16.172Z,15.11
2022-09-10T17:22:20.125Z,15.19
2022-09-10T17:27:25.652Z,15.27
2022-09-10T17:32:34.547Z,14.54
2022-09-10T17:37:38.771Z,14.62
2022-09-10T17:42:42.565Z,15.31
2022-09-10T17:47:48.451Z,16.37
2022-09-10T17:52:52.795Z,15.60
2022-09-10T17:57:56.565Z,14.92
2022-09-10T18:03:01.919Z,15.33
2022-09-10T18:08:07.053Z,14.71
2022-09-10T18:13:11.028Z,14.32
2022-09-10T18:18:16.319Z,14.51
2022-09-10T18:23:20.508Z,14.55
2022-09-10T18:28:24.586Z,15.11
2022-09-10T18:33:29.904Z,16.29
2022-09-10T18:38:33.741Z,16.27
2022-09-10T18:43:38.541Z,15.61
2022-09-10T18:48:44.784Z,15.88
2022-09-10T18:53:50.022Z,16.19
2022-09-10T18:58:56.653Z,16.15
2022-09-10T19:04:03.190Z,16.04
2022-09-10T19:09:10.924Z,15.63
2022-09-10T19:14:18.164Z,16.12
2022-09-10T19:19:26.110Z,16.26
2022-09-10T19:24:54.071Z,15.07
2022-09-10T19:29:55.954Z,15.00
2022-09-10T19:35:01.388Z,15.32
2022-09-10T19:40:05.739Z,15.25
2022-09-10T19:45:11.174Z,15.30
2022-09-10T19:50:20.271Z,14.95
2022-09-10T19:55:27.064Z,14.20
2022-09-10T20:00:46.509Z,14.24
2022-09-10T20:05:53.163Z,14.67
2022-09-10T20:10:57.658Z,15.64
2022-09-10T20:16:02.734Z,15.30
2022-09-10T20:21:14.249Z,15.83
2022-09-10T20:26:19.827Z,16.27
2022-09-10T20:31:25.604Z,16.24
2022-09-10T20:36:31.397Z,15.99
2022-09-10T20:41:35.375Z,15.98
2022-09-10T20:46:41.858Z,16.51
2022-09-10T20:51:47.391Z,15.70
2022-09-10T20:56:51.337Z,15.46
2022-09-10T21:01:56.693Z,15.12
2022-09-10T21:07:02.099Z,13.95
2022-09-10T21:12:06.973Z,13.80
2022-09-10T21:17:10.729Z,14.43
2022-09-10T21:22:15.790Z,14.36
2022-09-10T21:27:19.553Z,14.55
2022-09-10T21:32:23.668Z,14.70
2022-09-10T21:37:28.801Z,13.68
2022-09-10T21:42:32.914Z,13.93
2022-09-10T21:47:36.585Z,14.32
2022-09-10T21:52:41.920Z,14.00
2022-09-10T21:57:45.729Z,13.60
2022-09-10T22:02:51.087Z,14.27
2022-09-10T22:07:56.163Z,14.76
2022-09-10T22:13:00.169Z,15.35
2022-09-10T22:18:04.105Z,14.79
2022-09-10T22:23:09.435Z,14.75
2022-09-10T22:28:14.650Z,14.67
2022-09-10T22:33:18.531Z,15.06
2022-09-10T22:38:24.140Z,15.05
2022-09-10T22:43:28.123Z,15.49
2022-09-10T22:48:32.076Z,14.37
2022-09-10T22:53:42.549Z,13.98
2022-09-10T22:58:47.937Z,13.70
2022-09-10T23:03:53.014Z,14.55
2022-09-10T23:09:03.275Z,14.22
2022-09-10T23:14:09.416Z,14.26
2022-09-10T23:19:15.899Z,14.48
2022-09-10T23:24:24.383Z,13.95
2022-09-10T23:29:28.357Z,12.64
2022-09-10T23:34:32.414Z,12.63
2022-09-10T23:39:38.144Z,13.10
2022-09-10T23:44:42.071Z,14.39
2022-09-10T23:49:45.923Z,13.72
2022-09-10T23:54:51.510Z,13.68
2022-09-10T23:59:56.104Z,13.60
